アタテュルク国際空港(イスタンブル)の過去48時間の天気

アタテュルク国際空港(イスタンブル) (Istanbul / Ataturk)

現在時刻: 7/19 06:33 +03 (7/19 03:33 UTC) 以下の時間は現地時間です。

過去48時間のMETAR気象情報
時間 風向 風速(m/s) 視程 気温(℃) 湿度(%) 気圧(hPa) 天気現象
19 05:50 北北東 4 10km以上 22 73 1015
19 05:20 北北東 4 10km以上 22 73 1015
19 04:50 北北東 4 10km以上 22 73 1014
19 04:20 北北東 3 10km以上 22 73 1014
19 03:50 北東 3 10km以上 23 69 1014
19 03:20 北東 3 10km以上 22 73 1014
19 02:50 北東 3 10km以上 23 69 1014
19 02:20 北東 3 10km以上 23 69 1014
19 01:50 北東 4 10km以上 23 69 1014
19 01:20 北東 3 10km以上 23 69 1014
19 00:50 北東 4 10km以上 23 69 1014
19 00:20 北東 4 10km以上 23 69 1014
18 23:50 北東 5 10km以上 23 69 1014
18 23:20 東北東 4 10km以上 23 69 1014
18 22:50 東北東 4 10km以上 24 65 1014
LTBA 190250Z 03007KT CAVOK 22/17 Q1015 NOSIG RMK RWY17L 04005KT RWY05 02008KT RWY23 04007KT
LTBA 190220Z 03008KT CAVOK 22/17 Q1015 NOSIG RMK RWY17L 04004KT RWY05 03008KT RWY23 04008KT
LTBA 190150Z 03007KT CAVOK 22/17 Q1014 NOSIG RMK RWY17L 03006KT RWY05 02008KT RWY23 03007KT
LTBA 190120Z 03006KT CAVOK 22/17 Q1014 NOSIG RMK RWY17L 03006KT RWY05 02008KT RWY23 04007KT
LTBA 190050Z 04006KT 010V110 CAVOK 23/17 Q1014 NOSIG RMK RWY17L 03006KT RWY05 03007KT RWY23 04006KT
LTBA 190020Z 04005KT CAVOK 22/17 Q1014 NOSIG RMK RWY17L 03005KT RWY05 02006KT RWY23 05004KT 020V080
LTBA 182350Z 04006KT 020V080 CAVOK 23/17 Q1014 NOSIG RMK RWY17L 03004KT RWY05 03006KT RWY23 05006KT 360V080
LTBA 182320Z 04006KT CAVOK 23/17 Q1014 NOSIG RMK RWY17L 04005KT RWY05 03007KT RWY23 05006KT
LTBA 182250Z 04007KT CAVOK 23/17 Q1014 NOSIG RMK RWY17L 05005KT RWY05 03007KT RWY23 06007KT
LTBA 182220Z 04006KT 010V070 CAVOK 23/17 Q1014 NOSIG RMK RWY17L 04005KT RWY05 03006KT RWY23 05006KT
LTBA 182150Z 04008KT CAVOK 23/17 Q1014 NOSIG RMK RWY17L 04005KT RWY05 03008KT RWY23 05007KT
LTBA 182120Z 05008KT CAVOK 23/17 Q1014 NOSIG RMK RWY17L 03005KT 360V070 RWY05 04007KT RWY23 06007KT
LTBA 182050Z 05009KT CAVOK 23/17 Q1014 NOSIG RMK RWY17L 05008KT 010V080 RWY05 04008KT RWY23 06007KT
LTBA 182020Z 06008KT CAVOK 23/17 Q1014 NOSIG RMK RWY17L 05009KT RWY05 04008KT RWY23 07009KT
LTBA 181950Z 07008KT CAVOK 24/17 Q1014 NOSIG RMK RWY17L 06007KT 030V110 RWY05 05009KT RWY23 07008KT